createdAt,value
2022-09-27T00:02:16.738Z,23.22
2022-09-27T00:04:45.658Z,23.22
2022-09-27T00:07:15.170Z,23.22
2022-09-27T00:09:46.003Z,23.21
2022-09-27T00:12:14.028Z,23.21
2022-09-27T00:14:42.050Z,23.21
2022-09-27T00:17:10.815Z,23.20
2022-09-27T00:19:38.847Z,23.20
2022-09-27T00:22:06.879Z,23.19
2022-09-27T00:24:35.320Z,23.19
2022-09-27T00:27:04.854Z,23.18
2022-09-27T00:29:32.943Z,23.17
2022-09-27T00:32:00.939Z,23.16
2022-09-27T00:34:28.995Z,23.17
2022-09-27T00:36:56.977Z,23.16
2022-09-27T00:39:26.509Z,23.17
2022-09-27T00:41:54.661Z,23.17
2022-09-27T00:45:02.895Z,23.17
2022-09-27T00:47:38.039Z,23.16
2022-09-27T00:50:09.577Z,23.16
2022-09-27T00:52:42.121Z,23.16
2022-09-27T00:55:14.371Z,23.16
2022-09-27T00:57:44.149Z,23.16
2022-09-27T01:00:15.158Z,23.16
2022-09-27T01:02:46.956Z,23.16
2022-09-27T01:05:16.671Z,23.15
2022-09-27T01:07:45.956Z,23.15
2022-09-27T01:10:15.608Z,23.15
2022-09-27T01:12:51.075Z,23.15
2022-09-27T01:15:24.756Z,23.15
2022-09-27T01:18:02.222Z,23.15
2022-09-27T01:21:03.548Z,23.15
2022-09-27T01:23:58.914Z,23.13
2022-09-27T01:26:31.810Z,23.13
2022-09-27T01:29:01.862Z,23.13
2022-09-27T01:31:33.283Z,23.10
2022-09-27T01:34:16.609Z,23.13
2022-09-27T01:36:50.025Z,23.12
2022-09-27T01:39:24.853Z,23.12
2022-09-27T01:41:57.454Z,23.11
2022-09-27T01:44:28.935Z,23.11
2022-09-27T01:47:01.274Z,23.11
2022-09-27T01:49:33.602Z,23.11
2022-09-27T01:52:03.765Z,23.11
2022-09-27T01:54:35.680Z,23.11
2022-09-27T01:57:04.800Z,23.12
2022-09-27T01:59:36.941Z,23.11
2022-09-27T02:02:09.965Z,23.11
2022-09-27T02:04:39.510Z,23.10
2022-09-27T02:07:11.137Z,23.11
2022-09-27T02:09:42.008Z,23.11
2022-09-27T02:12:12.742Z,23.12
2022-09-27T02:14:43.011Z,23.12
2022-09-27T02:17:16.329Z,23.12
2022-09-27T02:19:49.482Z,23.10
2022-09-27T02:22:23.292Z,23.09
2022-09-27T02:24:54.511Z,23.11
2022-09-27T02:27:23.834Z,23.10
2022-09-27T02:29:54.628Z,23.10
2022-09-27T02:32:24.084Z,23.09
2022-09-27T02:34:55.763Z,23.09
2022-09-27T02:37:25.275Z,23.09
2022-09-27T02:39:55.014Z,23.08
2022-09-27T02:42:24.325Z,23.09
2022-09-27T02:44:53.688Z,23.08
2022-09-27T02:47:40.911Z,23.09
2022-09-27T02:50:26.512Z,23.08
2022-09-27T02:52:58.661Z,23.08
2022-09-27T02:55:31.514Z,23.07
2022-09-27T02:58:06.208Z,23.07
2022-09-27T03:00:36.096Z,23.08
2022-09-27T03:03:08.808Z,23.08
2022-09-27T03:05:39.777Z,23.09
2022-09-27T03:08:09.146Z,23.08
2022-09-27T03:10:38.462Z,23.08
2022-09-27T03:13:06.484Z,23.08
2022-09-27T03:15:35.682Z,23.08
2022-09-27T03:18:03.784Z,23.07
2022-09-27T03:20:34.589Z,23.09
2022-09-27T03:23:03.940Z,23.08
2022-09-27T03:25:32.989Z,23.07
2022-09-27T03:28:02.798Z,23.06
2022-09-27T03:30:32.293Z,23.07
2022-09-27T03:33:01.386Z,23.07
2022-09-27T03:35:30.421Z,23.06
2022-09-27T03:38:01.111Z,23.05
2022-09-27T03:40:33.029Z,23.03
2022-09-27T03:43:02.551Z,23.05
2022-09-27T03:45:31.845Z,23.06
2022-09-27T03:48:01.350Z,23.04
2022-09-27T03:50:30.478Z,23.04
2022-09-27T03:53:01.273Z,23.03
2022-09-27T03:55:30.538Z,23.02
2022-09-27T03:57:59.888Z,23.04
2022-09-27T04:00:28.988Z,23.02
2022-09-27T04:03:01.178Z,23.02
2022-09-27T04:05:30.573Z,23.02
2022-09-27T04:08:01.176Z,23.02
2022-09-27T04:10:30.774Z,23.01
2022-09-27T04:13:00.533Z,23.01
2022-09-27T04:15:31.758Z,23.00
2022-09-27T04:18:00.835Z,22.99
2022-09-27T04:20:30.264Z,23.00
2022-09-27T04:22:59.502Z,23.00
2022-09-27T04:25:30.424Z,23.00
2022-09-27T04:27:59.467Z,22.99
2022-09-27T04:30:29.482Z,22.99
2022-09-27T04:32:59.070Z,22.98
2022-09-27T04:35:45.962Z,22.99
2022-09-27T04:38:15.531Z,23.00
2022-09-27T04:40:49.220Z,22.99
2022-09-27T04:43:18.906Z,22.98
2022-09-27T04:45:48.309Z,22.98
2022-09-27T04:48:16.866Z,22.99
2022-09-27T04:50:44.867Z,22.98
2022-09-27T04:53:15.212Z,22.98
2022-09-27T04:55:50.084Z,22.99
2022-09-27T04:58:19.497Z,22.99
2022-09-27T05:00:48.776Z,22.98
2022-09-27T05:03:24.836Z,22.98
2022-09-27T05:05:53.084Z,22.97
2022-09-27T05:08:24.604Z,22.96
2022-09-27T05:11:01.952Z,22.98
2022-09-27T05:13:31.436Z,22.97
2022-09-27T05:16:08.803Z,22.99
2022-09-27T05:18:40.283Z,22.98
2022-09-27T05:21:11.451Z,22.98
2022-09-27T05:23:43.677Z,22.98
2022-09-27T05:26:16.867Z,23.00
2022-09-27T05:28:47.318Z,23.00
2022-09-27T05:31:16.984Z,23.01
2022-09-27T05:33:46.305Z,23.02
2022-09-27T05:36:18.257Z,23.03
2022-09-27T05:38:47.741Z,23.03
2022-09-27T05:41:18.574Z,23.05
2022-09-27T05:43:47.735Z,23.07
2022-09-27T05:46:17.393Z,23.08
2022-09-27T05:48:46.562Z,23.09
2022-09-27T05:51:15.942Z,23.11
2022-09-27T05:53:45.341Z,23.12
2022-09-27T05:56:14.343Z,23.12
2022-09-27T05:58:44.839Z,23.12
2022-09-27T06:01:12.857Z,23.13
2022-09-27T06:03:41.235Z,23.14
2022-09-27T06:06:10.720Z,23.15
2022-09-27T06:08:39.409Z,23.15
2022-09-27T06:11:08.231Z,23.17
2022-09-27T06:13:36.357Z,23.16
2022-09-27T06:16:06.198Z,23.16
2022-09-27T06:18:34.240Z,23.17
2022-09-27T06:21:02.287Z,23.17
2022-09-27T06:23:32.745Z,23.18
2022-09-27T06:26:02.528Z,23.18
2022-09-27T06:28:30.617Z,23.21
2022-09-27T06:31:00.503Z,23.22
2022-09-27T06:33:29.975Z,23.20
2022-09-27T06:35:58.058Z,23.23
2022-09-27T06:38:26.151Z,23.24
2022-09-27T06:40:54.196Z,23.25
2022-09-27T06:43:22.250Z,23.26
2022-09-27T06:45:50.553Z,23.27
2022-09-27T06:48:18.664Z,23.28
2022-09-27T06:50:49.138Z,23.28
2022-09-27T06:53:17.733Z,23.29
2022-09-27T06:55:45.759Z,23.30
2022-09-27T06:58:30.870Z,23.30
2022-09-27T07:00:59.140Z,23.32
2022-09-27T07:03:35.526Z,23.32
2022-09-27T07:06:07.189Z,23.35
2022-09-27T07:08:36.085Z,23.35
2022-09-27T07:11:05.413Z,23.37
2022-09-27T07:13:34.668Z,23.39
2022-09-27T07:16:03.252Z,23.41
2022-09-27T07:18:31.380Z,23.42
2022-09-27T07:21:00.884Z,23.42
2022-09-27T07:23:30.354Z,23.45
2022-09-27T07:25:59.212Z,23.47
2022-09-27T07:28:27.241Z,23.47
2022-09-27T07:30:56.538Z,23.49
2022-09-27T07:33:24.693Z,23.49
2022-09-27T07:35:52.691Z,23.50
2022-09-27T07:38:20.702Z,23.51
2022-09-27T07:40:50.310Z,23.55
2022-09-27T07:43:19.588Z,23.57
2022-09-27T07:45:47.780Z,23.58
2022-09-27T07:48:16.395Z,23.56
2022-09-27T07:50:44.504Z,23.60
2022-09-27T07:53:13.953Z,23.61
2022-09-27T07:55:42.509Z,23.63
2022-09-27T07:58:13.750Z,23.64
2022-09-27T08:00:42.020Z,23.65
2022-09-27T08:03:11.274Z,23.65
2022-09-27T08:05:42.138Z,23.67
2022-09-27T08:08:10.255Z,23.68
2022-09-27T08:10:39.901Z,23.68
2022-09-27T08:13:08.367Z,23.73
2022-09-27T08:15:39.255Z,23.75
2022-09-27T08:18:07.926Z,23.78
2022-09-27T08:20:35.960Z,23.81
2022-09-27T08:23:04.426Z,23.83
2022-09-27T08:25:32.555Z,23.85
2022-09-27T08:28:01.457Z,23.89
2022-09-27T08:30:31.252Z,23.92
2022-09-27T08:33:02.503Z,23.92
2022-09-27T08:35:30.567Z,23.94
2022-09-27T08:37:59.808Z,23.96
2022-09-27T08:40:31.557Z,23.98
2022-09-27T08:43:02.966Z,24.01
2022-09-27T08:45:32.617Z,24.01
2022-09-27T08:48:02.660Z,24.04
2022-09-27T08:50:32.666Z,24.07
2022-09-27T08:53:04.041Z,24.09
2022-09-27T08:55:36.992Z,24.11
2022-09-27T08:58:06.275Z,24.14
2022-09-27T09:00:34.452Z,24.13
2022-09-27T09:03:04.062Z,24.17
2022-09-27T09:05:33.536Z,24.17
2022-09-27T09:08:14.716Z,24.21
2022-09-27T09:11:07.248Z,24.23
2022-09-27T09:13:46.728Z,24.25
2022-09-27T09:16:18.235Z,24.26
2022-09-27T09:18:56.569Z,24.29
2022-09-27T09:21:28.905Z,24.30
2022-09-27T09:24:17.972Z,24.30
2022-09-27T09:26:49.230Z,24.31
2022-09-27T09:29:41.762Z,24.33
2022-09-27T09:32:14.064Z,24.35
2022-09-27T09:34:43.944Z,24.37
2022-09-27T09:37:14.092Z,24.38
2022-09-27T09:39:43.983Z,24.41
2022-09-27T09:42:13.854Z,24.44
2022-09-27T09:44:46.915Z,24.48
2022-09-27T09:47:26.512Z,24.51
2022-09-27T09:49:57.160Z,24.53
2022-09-27T09:52:26.823Z,24.54
2022-09-27T09:54:56.816Z,24.57
2022-09-27T09:57:26.584Z,24.59
2022-09-27T09:59:58.464Z,24.55
2022-09-27T10:02:31.263Z,24.55
2022-09-27T10:05:05.252Z,24.58
2022-09-27T10:07:35.643Z,24.61
2022-09-27T10:10:04.243Z,24.64
2022-09-27T10:12:32.315Z,24.66
2022-09-27T10:15:01.340Z,24.66
2022-09-27T10:17:37.504Z,24.67
2022-09-27T10:20:07.945Z,24.72
2022-09-27T10:22:37.866Z,24.75
2022-09-27T10:25:08.021Z,24.74
2022-09-27T10:27:40.452Z,24.76
2022-09-27T10:30:14.689Z,24.73
2022-09-27T10:32:42.725Z,24.74
2022-09-27T10:35:36.902Z,24.78
2022-09-27T10:38:22.385Z,24.82
2022-09-27T10:40:50.653Z,24.83
2022-09-27T10:43:29.654Z,24.79
2022-09-27T10:46:13.881Z,24.83
2022-09-27T10:48:42.974Z,24.86
2022-09-27T10:51:24.154Z,24.88
2022-09-27T10:53:52.192Z,24.89
2022-09-27T10:56:30.545Z,24.91
2022-09-27T10:58:59.985Z,24.91
2022-09-27T11:01:28.152Z,24.85
2022-09-27T11:03:56.689Z,24.84
2022-09-27T11:06:32.173Z,24.83
2022-09-27T11:09:12.221Z,24.81
2022-09-27T11:11:40.350Z,24.79
2022-09-27T11:14:20.005Z,24.78
2022-09-27T11:17:01.331Z,24.78
2022-09-27T11:19:44.469Z,24.78
2022-09-27T11:22:23.127Z,24.77
2022-09-27T11:24:59.421Z,24.76
2022-09-27T11:27:32.975Z,24.76
2022-09-27T11:30:06.259Z,24.74
2022-09-27T11:32:58.539Z,24.73
2022-09-27T11:35:38.002Z,24.74
2022-09-27T11:38:29.621Z,24.72
2022-09-27T11:41:16.229Z,24.70
2022-09-27T11:44:04.053Z,24.74
2022-09-27T11:46:40.217Z,24.76
2022-09-27T11:49:32.410Z,24.75
2022-09-27T11:52:14.786Z,24.73
2022-09-27T11:54:51.756Z,24.65
2022-09-27T11:57:23.215Z,24.59
2022-09-27T12:00:05.909Z,24.61
2022-09-27T12:02:58.797Z,24.61
2022-09-27T12:05:27.210Z,24.61
2022-09-27T12:08:01.910Z,24.61
2022-09-27T12:10:31.294Z,24.63
2022-09-27T12:12:59.413Z,24.63
2022-09-27T12:15:30.267Z,24.64
2022-09-27T12:18:01.854Z,24.63
2022-09-27T12:20:31.157Z,24.65
2022-09-27T12:23:01.491Z,24.65
2022-09-27T12:25:33.294Z,24.65
2022-09-27T12:28:04.302Z,24.65
2022-09-27T12:30:32.803Z,24.65
2022-09-27T12:33:05.776Z,24.67
2022-09-27T12:35:35.640Z,24.67
2022-09-27T12:38:04.716Z,24.68
2022-09-27T12:40:34.919Z,24.67
2022-09-27T12:43:05.862Z,24.67
2022-09-27T12:45:45.751Z,24.67
2022-09-27T12:48:19.125Z,24.66
2022-09-27T12:50:54.387Z,24.66
2022-09-27T12:53:24.913Z,24.66
2022-09-27T12:56:09.456Z,24.66
2022-09-27T12:59:01.470Z,24.66
2022-09-27T13:01:37.728Z,24.66
2022-09-27T13:04:18.266Z,24.71
2022-09-27T13:07:00.777Z,24.75
2022-09-27T13:09:56.893Z,24.77
2022-09-27T13:12:27.003Z,24.76
2022-09-27T13:15:00.434Z,24.77
2022-09-27T13:17:50.929Z,24.74
2022-09-27T13:20:49.236Z,24.71
2022-09-27T13:23:50.839Z,24.66
2022-09-27T13:27:01.562Z,24.64
2022-09-27T13:29:36.933Z,24.59
2022-09-27T13:32:16.279Z,24.55
2022-09-27T13:34:47.435Z,24.52
2022-09-27T13:37:40.045Z,24.51
2022-09-27T13:40:32.725Z,24.47
2022-09-27T13:43:18.077Z,24.47
2022-09-27T13:45:55.180Z,24.47
2022-09-27T13:48:26.434Z,24.48
2022-09-27T13:50:56.378Z,24.50
2022-09-27T13:53:27.083Z,24.51
2022-09-27T13:55:55.036Z,24.53
2022-09-27T13:58:47.610Z,24.57
2022-09-27T14:01:22.345Z,24.59
2022-09-27T14:03:53.569Z,24.62
2022-09-27T14:06:22.581Z,24.63
2022-09-27T14:08:54.224Z,24.65
2022-09-27T14:11:24.653Z,24.63
2022-09-27T14:14:02.145Z,24.63
2022-09-27T14:16:34.052Z,24.68
2022-09-27T14:19:02.569Z,24.68
2022-09-27T14:21:32.415Z,24.72
2022-09-27T14:24:26.452Z,24.77
2022-09-27T14:27:07.546Z,24.79
2022-09-27T14:29:41.569Z,24.81
2022-09-27T14:32:13.240Z,24.79
2022-09-27T14:34:41.113Z,24.75
2022-09-27T14:37:25.947Z,24.79
2022-09-27T14:39:58.452Z,24.92
2022-09-27T14:42:27.192Z,25.03
2022-09-27T14:44:55.640Z,25.09
2022-09-27T14:47:25.899Z,25.19
2022-09-27T14:49:55.312Z,25.28
2022-09-27T14:52:27.844Z,25.37
2022-09-27T14:55:00.151Z,25.48
2022-09-27T14:57:29.617Z,25.58
2022-09-27T14:59:59.745Z,25.64
2022-09-27T15:02:28.997Z,25.67
2022-09-27T15:04:56.900Z,25.71
2022-09-27T15:07:24.847Z,25.72
2022-09-27T15:09:52.929Z,25.71
2022-09-27T15:12:26.003Z,25.72
2022-09-27T15:14:56.140Z,25.69
2022-09-27T15:17:25.340Z,25.66
2022-09-27T15:20:04.721Z,25.58
2022-09-27T15:22:37.818Z,25.56
2022-09-27T15:25:09.171Z,25.52
2022-09-27T15:27:37.352Z,25.46
2022-09-27T15:30:06.341Z,25.35
2022-09-27T15:32:34.373Z,25.21
2022-09-27T15:35:09.165Z,25.21
2022-09-27T15:37:37.846Z,25.15
2022-09-27T15:40:32.004Z,25.09
2022-09-27T15:43:55.931Z,25.02
2022-09-27T15:46:29.656Z,24.91
2022-09-27T15:49:22.396Z,24.89
2022-09-27T15:51:51.948Z,24.84
2022-09-27T15:54:20.862Z,24.82
2022-09-27T15:56:54.466Z,24.78
2022-09-27T15:59:25.690Z,24.75
2022-09-27T16:01:56.491Z,24.71
2022-09-27T16:04:24.460Z,24.69
2022-09-27T16:06:53.759Z,24.65
2022-09-27T16:09:22.049Z,24.63
2022-09-27T16:11:50.377Z,24.60
2022-09-27T16:14:19.319Z,24.57
2022-09-27T16:16:47.960Z,24.54
2022-09-27T16:19:15.992Z,24.53
2022-09-27T16:21:44.249Z,24.50
2022-09-27T16:24:13.672Z,24.47
2022-09-27T16:26:41.581Z,24.45
2022-09-27T16:29:10.862Z,24.44
2022-09-27T16:31:38.973Z,24.41
2022-09-27T16:34:06.992Z,24.40
2022-09-27T16:36:36.036Z,24.39
2022-09-27T16:39:05.808Z,24.36
2022-09-27T16:41:35.818Z,24.35
2022-09-27T16:44:07.589Z,24.33
2022-09-27T16:46:35.702Z,24.32
2022-09-27T16:49:03.845Z,24.31
2022-09-27T16:51:49.128Z,24.30
2022-09-27T16:54:17.643Z,24.29
2022-09-27T16:56:47.095Z,24.28
2022-09-27T16:59:15.069Z,24.28
2022-09-27T17:01:42.992Z,24.26
2022-09-27T17:04:11.040Z,24.26
2022-09-27T17:06:38.926Z,24.27
2022-09-27T17:09:06.925Z,24.25
2022-09-27T17:11:34.827Z,24.24
2022-09-27T17:14:04.108Z,24.24
2022-09-27T17:16:32.170Z,24.23
2022-09-27T17:19:00.114Z,24.22
2022-09-27T17:21:28.321Z,24.21
2022-09-27T17:23:56.665Z,24.22
2022-09-27T17:26:26.955Z,24.24
2022-09-27T17:28:57.375Z,24.24
2022-09-27T17:31:26.799Z,24.25
2022-09-27T17:33:57.840Z,24.24
2022-09-27T17:36:27.045Z,24.21
2022-09-27T17:38:55.027Z,24.20
2022-09-27T17:41:24.203Z,24.19
2022-09-27T17:43:54.930Z,24.20
2022-09-27T17:46:24.367Z,24.18
2022-09-27T17:49:25.593Z,24.18
2022-09-27T17:51:54.151Z,24.17
2022-09-27T17:54:23.378Z,24.17
2022-09-27T17:56:51.364Z,24.16
2022-09-27T17:59:19.328Z,24.17
2022-09-27T18:01:47.816Z,24.16
2022-09-27T18:04:18.628Z,24.16
2022-09-27T18:06:47.846Z,24.14
2022-09-27T18:09:17.195Z,24.14
2022-09-27T18:11:45.346Z,24.14
2022-09-27T18:14:13.368Z,24.14
2022-09-27T18:16:43.116Z,24.14
2022-09-27T18:19:12.037Z,24.14
2022-09-27T18:21:41.297Z,24.13
2022-09-27T18:24:10.135Z,24.13
2022-09-27T18:26:38.943Z,24.13
2022-09-27T18:29:08.022Z,24.12
2022-09-27T18:31:36.086Z,24.11
2022-09-27T18:34:04.121Z,24.10
2022-09-27T18:36:32.024Z,24.10
2022-09-27T18:39:02.230Z,24.10
2022-09-27T18:41:30.954Z,24.09
2022-09-27T18:44:00.888Z,24.08
2022-09-27T18:46:35.551Z,24.08
2022-09-27T18:49:04.486Z,24.06
2022-09-27T18:51:32.385Z,24.06
2022-09-27T18:54:02.681Z,24.07
2022-09-27T18:56:30.610Z,24.05
2022-09-27T18:58:59.823Z,24.06
2022-09-27T19:01:27.869Z,24.08
2022-09-27T19:03:55.875Z,24.11
2022-09-27T19:06:24.219Z,24.11
2022-09-27T19:08:54.769Z,24.13
2022-09-27T19:11:24.181Z,24.14
2022-09-27T19:13:52.624Z,24.15
2022-09-27T19:16:23.845Z,24.15
2022-09-27T19:18:51.845Z,24.16
2022-09-27T19:21:20.540Z,24.16
2022-09-27T19:23:48.900Z,24.18
2022-09-27T19:26:17.827Z,24.19
2022-09-27T19:28:47.158Z,24.19
2022-09-27T19:31:16.079Z,24.19
2022-09-27T19:33:44.045Z,24.20
2022-09-27T19:36:13.289Z,24.20
2022-09-27T19:38:41.139Z,24.21
2022-09-27T19:41:09.608Z,24.22
2022-09-27T19:43:37.629Z,24.21
2022-09-27T19:46:07.573Z,24.22
2022-09-27T19:48:36.829Z,24.21
2022-09-27T19:51:05.138Z,24.22
2022-09-27T19:53:33.231Z,24.23
2022-09-27T19:56:01.352Z,24.23
2022-09-27T19:58:29.906Z,24.24
2022-09-27T20:01:01.440Z,24.23
2022-09-27T20:03:30.984Z,24.24
2022-09-27T20:05:59.291Z,24.25
2022-09-27T20:08:27.360Z,24.24
2022-09-27T20:10:56.280Z,24.24
2022-09-27T20:13:24.676Z,24.24
2022-09-27T20:15:53.903Z,24.26
2022-09-27T20:18:21.907Z,24.27
2022-09-27T20:20:51.193Z,24.27
2022-09-27T20:23:20.185Z,24.28
2022-09-27T20:25:48.867Z,24.29
2022-09-27T20:28:16.826Z,24.29
2022-09-27T20:30:44.815Z,24.31
2022-09-27T20:33:29.822Z,24.30
2022-09-27T20:35:59.151Z,24.30
2022-09-27T20:38:28.069Z,24.34
2022-09-27T20:40:56.221Z,24.39
2022-09-27T20:43:26.491Z,24.42
2022-09-27T20:45:54.452Z,24.43
2022-09-27T20:48:22.511Z,24.43
2022-09-27T20:50:50.490Z,24.42
2022-09-27T20:53:20.102Z,24.41
2022-09-27T20:55:48.058Z,24.40
2022-09-27T20:58:15.976Z,24.38
2022-09-27T21:00:43.972Z,24.36
2022-09-27T21:03:11.962Z,24.34
2022-09-27T21:05:39.916Z,24.32
2022-09-27T21:08:07.848Z,24.29
2022-09-27T21:10:37.149Z,24.28
2022-09-27T21:13:17.455Z,24.26
2022-09-27T21:15:45.546Z,24.25
2022-09-27T21:18:13.914Z,24.23
2022-09-27T21:20:41.868Z,24.22
2022-09-27T21:23:09.802Z,24.21
2022-09-27T21:25:39.071Z,24.20
2022-09-27T21:28:06.971Z,24.19
2022-09-27T21:30:36.927Z,24.17
2022-09-27T21:33:04.928Z,24.16
2022-09-27T21:35:32.867Z,24.16
2022-09-27T21:38:00.825Z,24.14
2022-09-27T21:40:28.970Z,24.12
2022-09-27T21:42:58.321Z,24.11
2022-09-27T21:45:26.237Z,24.10
2022-09-27T21:47:54.181Z,24.08
2022-09-27T21:50:22.052Z,24.07
2022-09-27T21:52:49.933Z,24.04
2022-09-27T21:55:17.823Z,24.03
2022-09-27T21:57:45.734Z,24.02
2022-09-27T22:00:15.939Z,24.00
2022-09-27T22:02:44.121Z,23.99
2022-09-27T22:05:12.019Z,23.97
2022-09-27T22:07:39.916Z,23.97
2022-09-27T22:10:08.635Z,23.95
2022-09-27T22:12:36.569Z,23.94
2022-09-27T22:16:00.053Z,23.94
2022-09-27T22:18:29.382Z,23.90
2022-09-27T22:21:02.268Z,23.90
2022-09-27T22:23:30.180Z,23.89
2022-09-27T22:25:58.256Z,23.88
2022-09-27T22:28:26.208Z,23.87
2022-09-27T22:30:54.176Z,23.87
2022-09-27T22:33:22.089Z,23.85
2022-09-27T22:35:51.313Z,23.85
2022-09-27T22:38:19.204Z,23.85
2022-09-27T22:40:57.115Z,23.83
2022-09-27T22:43:26.270Z,23.82
2022-09-27T22:45:54.181Z,23.81
2022-09-27T22:48:22.076Z,23.81
2022-09-27T22:50:51.520Z,23.80
2022-09-27T22:53:19.421Z,23.78
2022-09-27T22:55:59.673Z,23.77
2022-09-27T22:58:29.891Z,23.76
2022-09-27T23:00:57.873Z,23.76
2022-09-27T23:03:25.802Z,23.74
2022-09-27T23:05:55.150Z,23.73
2022-09-27T23:08:23.076Z,23.72
2022-09-27T23:10:50.962Z,23.72
2022-09-27T23:13:19.318Z,23.70
2022-09-27T23:15:47.303Z,23.68
2022-09-27T23:18:15.266Z,23.67
2022-09-27T23:20:43.852Z,23.67
2022-09-27T23:23:15.433Z,23.66
2022-09-27T23:25:43.306Z,23.65
2022-09-27T23:28:11.244Z,23.64
2022-09-27T23:30:39.202Z,23.63
2022-09-27T23:33:08.371Z,23.63
2022-09-27T23:35:36.266Z,23.62
2022-09-27T23:38:04.139Z,23.61
2022-09-27T23:40:35.949Z,23.60
2022-09-27T23:43:04.576Z,23.60
2022-09-27T23:45:33.427Z,23.59
2022-09-27T23:48:02.080Z,23.59
2022-09-27T23:50:31.036Z,23.58
2022-09-27T23:52:59.137Z,23.58
2022-09-27T23:55:27.078Z,23.56
2022-09-27T23:57:56.688Z,23.56
